aviador You're here:

LFKC Decoded Metar

CALVI in CORSE ISL.
Report Time2018-06-18 05:30:00
UTC Time2018-06-18 05:40:10
Flight Rules vfr VFR
WindCalm
Visibility9999 m
Phenomena:N/A
Clouds:N/A
Expected CloudBase > 1,200 ft AGL from Temp-Dew spread
CeilingNone
Temp22°C (ISA +7)
Dew Point19°C (83% RH)
QNH1014 hPa
Density Alt1,306 ft
Elevation190 ft
Report Wrong Elevation
Raw Report
METAR LFKC 180530Z AUTO 00000KT CAVOK 22/19 Q1014 NOSIG=

Extra information for LFKC:More info

Metar Taf Metar & Taf Last 4 Metars F.Rules Stats Wind Profile Meteogram Temp Stats Airport Information Weather charts Add Link Nearby VenuesMetar ALERT Operation Metar Decoded Social comments